createdAt,value
2019-03-04T00:01:23.353Z,59.07
2019-03-04T00:07:29.133Z,58.92
2019-03-04T00:13:34.912Z,58.58
2019-03-04T00:19:40.890Z,58.48
2019-03-04T00:25:46.808Z,58.25
2019-03-04T00:31:52.795Z,58.08
2019-03-04T00:37:58.729Z,57.93
2019-03-04T00:44:04.488Z,57.89
2019-03-04T00:50:11.163Z,57.94
2019-03-04T00:56:16.954Z,57.85
2019-03-04T01:02:23.140Z,57.78
2019-03-04T01:08:29.167Z,57.94
2019-03-04T01:14:34.992Z,57.84
2019-03-04T01:20:40.838Z,57.85
2019-03-04T01:26:47.096Z,57.58
2019-03-04T01:32:54.072Z,57.55
2019-03-04T01:38:59.917Z,57.31
2019-03-04T01:45:06.378Z,56.74
2019-03-04T01:51:12.621Z,56.53
2019-03-04T01:57:18.394Z,56.44
2019-03-04T02:03:24.803Z,56.31
2019-03-04T02:09:31.074Z,56.08
2019-03-04T02:15:37.318Z,56.05
2019-03-04T02:21:43.416Z,56.24
2019-03-04T02:27:53.393Z,56.64
2019-03-04T02:33:59.663Z,56.52
2019-03-04T02:40:06.656Z,56.78
2019-03-04T02:46:12.749Z,57.21
2019-03-04T02:52:18.839Z,57.37
2019-03-04T02:58:24.817Z,56.96
2019-03-04T03:04:30.834Z,56.50
2019-03-04T03:10:36.918Z,56.04
2019-03-04T03:16:42.704Z,55.46
2019-03-04T03:22:48.786Z,55.13
2019-03-04T03:28:55.009Z,55.05
2019-03-04T03:35:00.884Z,55.11
2019-03-04T03:41:07.398Z,55.34
2019-03-04T03:47:13.220Z,54.34
2019-03-04T03:53:19.264Z,53.02
2019-03-04T03:59:25.247Z,51.92
2019-03-04T04:05:31.228Z,51.86
2019-03-04T04:11:37.063Z,51.48
2019-03-04T04:17:42.872Z,52.09
2019-03-04T04:23:49.090Z,52.37
2019-03-04T04:29:55.095Z,52.25
2019-03-04T04:36:00.910Z,50.88
2019-03-04T04:42:06.775Z,49.00
2019-03-04T04:48:12.581Z,48.32
2019-03-04T04:54:18.318Z,48.38
2019-03-04T05:00:24.244Z,48.45
2019-03-04T05:06:30.034Z,48.26
2019-03-04T05:12:36.069Z,48.34
2019-03-04T05:18:42.069Z,48.53
2019-03-04T05:24:47.822Z,48.71
2019-03-04T05:30:53.552Z,48.83
2019-03-04T05:36:59.322Z,48.69
2019-03-04T05:43:05.235Z,48.92
2019-03-04T05:49:11.013Z,49.08
2019-03-04T05:55:17.210Z,49.48
2019-03-04T06:01:35.264Z,49.80
2019-03-04T06:07:50.311Z,51.09
2019-03-04T06:13:56.093Z,57.02
2019-03-04T06:20:01.923Z,60.07
2019-03-04T06:26:07.940Z,62.59
2019-03-04T06:32:13.885Z,63.49
2019-03-04T06:38:20.192Z,63.92
2019-03-04T06:44:26.118Z,63.07
2019-03-04T06:50:52.762Z,61.26
2019-03-04T06:57:30.946Z,60.14
2019-03-04T07:03:48.476Z,58.91
2019-03-04T07:09:54.754Z,59.43
2019-03-04T07:16:00.760Z,59.61
2019-03-04T07:22:07.545Z,59.96
2019-03-04T07:28:13.381Z,60.31
2019-03-04T07:34:19.599Z,60.57
2019-03-04T07:40:25.481Z,60.04
2019-03-04T07:46:31.252Z,59.25
2019-03-04T07:52:37.007Z,58.41
2019-03-04T07:58:42.863Z,58.19
2019-03-04T08:04:48.792Z,57.96
2019-03-04T08:12:12.800Z,57.40
2019-03-04T08:18:18.760Z,56.74
2019-03-04T08:24:24.911Z,55.78
2019-03-04T08:30:30.817Z,54.36
2019-03-04T08:36:37.153Z,52.65
2019-03-04T08:42:43.317Z,53.05
2019-03-04T08:48:49.096Z,52.78
2019-03-04T08:54:56.170Z,50.90
2019-03-04T09:01:02.107Z,49.77
2019-03-04T09:07:07.949Z,49.51
2019-03-04T09:13:14.013Z,49.52
2019-03-04T09:19:20.294Z,48.97
2019-03-04T09:25:40.000Z,49.42
2019-03-04T09:31:46.493Z,49.77
2019-03-04T09:37:54.986Z,50.08
2019-03-04T09:44:00.816Z,51.83
2019-03-04T09:50:10.119Z,54.28
2019-03-04T09:56:16.177Z,55.82
2019-03-04T10:02:37.355Z,56.24
2019-03-04T10:09:23.496Z,56.07
2019-03-04T10:16:21.893Z,55.81
2019-03-04T10:23:27.159Z,55.88
2019-03-04T10:30:14.182Z,56.38
2019-03-04T10:37:02.203Z,55.81
2019-03-04T10:44:19.680Z,55.86
2019-03-04T10:50:26.013Z,55.17
2019-03-04T10:56:31.802Z,55.18
2019-03-04T11:02:37.567Z,55.04
2019-03-04T11:08:43.377Z,55.50
2019-03-04T11:14:49.144Z,61.19
2019-03-04T11:20:56.995Z,64.86
2019-03-04T11:27:02.742Z,66.47
2019-03-04T11:33:10.334Z,67.10
2019-03-04T11:39:47.900Z,67.45
2019-03-04T11:45:53.783Z,67.24
2019-03-04T11:51:59.525Z,66.31
2019-03-04T11:58:05.344Z,64.40
2019-03-04T12:04:11.336Z,62.94
2019-03-04T12:10:20.105Z,62.31
2019-03-04T12:16:26.069Z,62.32
2019-03-04T12:22:31.795Z,61.60
2019-03-04T12:28:37.723Z,60.85
2019-03-04T12:34:43.453Z,60.55
2019-03-04T12:40:49.230Z,61.19
2019-03-04T12:46:55.042Z,61.24
2019-03-04T12:53:00.990Z,60.34
2019-03-04T12:59:06.851Z,60.09
2019-03-04T13:05:12.902Z,60.12
2019-03-04T13:11:18.710Z,59.46
2019-03-04T13:17:24.466Z,60.18
2019-03-04T13:23:30.385Z,60.12
2019-03-04T13:29:36.203Z,59.93
2019-03-04T13:35:42.174Z,58.81
2019-03-04T13:41:47.919Z,59.01
2019-03-04T13:47:53.685Z,58.57
2019-03-04T13:53:59.547Z,57.73
2019-03-04T14:00:06.544Z,57.62
2019-03-04T14:06:12.782Z,55.83
2019-03-04T14:12:18.495Z,53.21
2019-03-04T14:18:24.695Z,51.30
2019-03-04T14:24:32.253Z,50.56
2019-03-04T14:30:38.325Z,51.01
2019-03-04T14:36:44.496Z,50.92
2019-03-04T14:42:50.508Z,51.28
2019-03-04T14:48:56.502Z,49.55
2019-03-04T14:55:02.677Z,47.58
2019-03-04T15:01:08.989Z,45.84
2019-03-04T15:07:15.337Z,44.71
2019-03-04T15:13:21.547Z,44.88
2019-03-04T15:19:27.529Z,44.40
2019-03-04T15:25:33.709Z,44.00
2019-03-04T15:31:39.523Z,42.78
2019-03-04T15:37:45.702Z,42.44
2019-03-04T15:43:51.662Z,41.48
2019-03-04T15:49:57.744Z,40.05
2019-03-04T15:56:03.544Z,40.30
2019-03-04T16:02:14.508Z,40.92
2019-03-04T16:08:20.524Z,42.09
2019-03-04T16:14:26.822Z,42.65
2019-03-04T16:20:33.085Z,42.62
2019-03-04T16:26:39.421Z,42.29
2019-03-04T16:32:45.355Z,42.11
2019-03-04T16:38:51.260Z,42.47
2019-03-04T16:44:57.002Z,42.84
2019-03-04T16:51:02.853Z,43.12
2019-03-04T16:57:13.862Z,42.87
2019-03-04T17:03:19.725Z,43.14
2019-03-04T17:09:26.268Z,43.86
2019-03-04T17:15:32.009Z,44.58
2019-03-04T17:21:37.673Z,45.30
2019-03-04T17:27:43.745Z,45.93
2019-03-04T17:33:49.550Z,46.60
2019-03-04T17:39:55.461Z,46.97
2019-03-04T17:46:01.290Z,47.10
2019-03-04T17:52:07.125Z,47.61
2019-03-04T17:58:13.492Z,48.18
2019-03-04T18:04:19.254Z,48.64
2019-03-04T18:10:25.416Z,49.10
2019-03-04T18:16:31.131Z,49.52
2019-03-04T18:22:36.901Z,49.74
2019-03-04T18:29:11.217Z,49.99
2019-03-04T18:36:23.197Z,50.05
2019-03-04T18:42:56.997Z,50.34
2019-03-04T18:49:03.911Z,50.55
2019-03-04T18:55:10.300Z,50.68
2019-03-04T19:01:16.761Z,50.90
2019-03-04T19:07:22.940Z,51.07
2019-03-04T19:13:28.882Z,51.41
2019-03-04T19:19:34.758Z,51.83
2019-03-04T19:25:40.764Z,52.03
2019-03-04T19:31:46.761Z,52.08
2019-03-04T19:37:52.707Z,52.27
2019-03-04T19:43:58.542Z,52.64
2019-03-04T19:50:04.868Z,53.11
2019-03-04T19:56:10.695Z,53.53
2019-03-04T20:02:18.181Z,53.80
2019-03-04T20:08:24.092Z,54.14
2019-03-04T20:14:29.983Z,54.36
2019-03-04T20:20:36.025Z,54.58
2019-03-04T20:26:42.189Z,54.78
2019-03-04T20:32:48.226Z,54.88
2019-03-04T20:38:54.046Z,55.01
2019-03-04T20:44:59.862Z,55.06
2019-03-04T20:51:06.109Z,55.12
2019-03-04T20:57:12.190Z,55.06
2019-03-04T21:03:18.453Z,55.34
2019-03-04T21:09:24.804Z,56.06
2019-03-04T21:15:30.612Z,58.51
2019-03-04T21:21:36.737Z,62.05
2019-03-04T21:27:42.541Z,63.38
2019-03-04T21:34:17.289Z,64.71
2019-03-04T21:41:27.110Z,65.20
2019-03-04T21:47:38.613Z,65.05
2019-03-04T21:53:47.574Z,65.51
2019-03-04T21:59:53.410Z,65.72
2019-03-04T22:05:59.676Z,65.95
2019-03-04T22:12:07.609Z,66.41
2019-03-04T22:18:13.346Z,66.70
2019-03-04T22:24:19.180Z,66.62
2019-03-04T22:30:24.974Z,66.97
2019-03-04T22:36:30.811Z,66.84
2019-03-04T22:42:36.746Z,66.79
2019-03-04T22:48:42.533Z,66.65
2019-03-04T22:54:48.251Z,66.49
2019-03-04T23:01:56.373Z,66.04
2019-03-04T23:08:02.150Z,65.45
2019-03-04T23:14:19.726Z,65.11
2019-03-04T23:20:25.620Z,64.44
2019-03-04T23:26:31.450Z,64.06
2019-03-04T23:32:37.571Z,63.74
2019-03-04T23:38:43.367Z,63.24
2019-03-04T23:44:49.101Z,63.09
2019-03-04T23:50:55.383Z,62.80
2019-03-04T23:57:01.800Z,62.57
